sensor_id;sensor_type;location;lat;lon;timestamp;P1;durP1;ratioP1;P2;durP2;ratioP2
37545;SDS011;23389;52.484;13.572;2023-04-24T00:00:07;8.88;;;5.53;;
37545;SDS011;23389;52.484;13.572;2023-04-24T00:02:34;9.15;;;5.70;;
37545;SDS011;23389;52.484;13.572;2023-04-24T00:04:59;7.95;;;5.28;;
37545;SDS011;23389;52.484;13.572;2023-04-24T00:07:27;6.40;;;5.00;;
37545;SDS011;23389;52.484;13.572;2023-04-24T00:09:52;7.68;;;5.30;;
37545;SDS011;23389;52.484;13.572;2023-04-24T00:12:17;7.95;;;5.38;;
37545;SDS011;23389;52.484;13.572;2023-04-24T00:14:42;7.50;;;5.37;;
37545;SDS011;23389;52.484;13.572;2023-04-24T00:17:08;8.38;;;5.82;;
37545;SDS011;23389;52.484;13.572;2023-04-24T00:19:33;8.05;;;5.63;;
37545;SDS011;23389;52.484;13.572;2023-04-24T00:21:58;7.15;;;5.07;;
37545;SDS011;23389;52.484;13.572;2023-04-24T00:24:23;7.35;;;5.28;;
37545;SDS011;23389;52.484;13.572;2023-04-24T00:26:48;8.57;;;5.70;;
37545;SDS011;23389;52.484;13.572;2023-04-24T00:29:13;7.63;;;5.70;;
37545;SDS011;23389;52.484;13.572;2023-04-24T00:31:39;7.22;;;5.38;;
37545;SDS011;23389;52.484;13.572;2023-04-24T00:34:04;8.63;;;6.18;;
37545;SDS011;23389;52.484;13.572;2023-04-24T00:36:29;8.30;;;5.67;;
37545;SDS011;23389;52.484;13.572;2023-04-24T00:38:55;8.18;;;4.95;;
37545;SDS011;23389;52.484;13.572;2023-04-24T00:41:21;7.30;;;5.30;;
37545;SDS011;23389;52.484;13.572;2023-04-24T00:43:46;9.30;;;5.45;;
37545;SDS011;23389;52.484;13.572;2023-04-24T00:46:12;8.52;;;5.53;;
37545;SDS011;23389;52.484;13.572;2023-04-24T00:48:38;7.40;;;5.28;;
37545;SDS011;23389;52.484;13.572;2023-04-24T00:51:03;7.63;;;5.50;;
37545;SDS011;23389;52.484;13.572;2023-04-24T00:53:28;8.85;;;6.10;;
37545;SDS011;23389;52.484;13.572;2023-04-24T00:55:54;8.73;;;5.88;;
37545;SDS011;23389;52.484;13.572;2023-04-24T00:58:19;8.87;;;5.33;;
37545;SDS011;23389;52.484;13.572;2023-04-24T01:00:44;9.07;;;5.82;;
37545;SDS011;23389;52.484;13.572;2023-04-24T01:03:10;8.23;;;5.50;;
37545;SDS011;23389;52.484;13.572;2023-04-24T01:05:35;8.65;;;5.95;;
37545;SDS011;23389;52.484;13.572;2023-04-24T01:08:01;8.10;;;5.20;;
37545;SDS011;23389;52.484;13.572;2023-04-24T01:10:26;7.80;;;6.07;;
37545;SDS011;23389;52.484;13.572;2023-04-24T01:12:52;10.02;;;6.05;;
37545;SDS011;23389;52.484;13.572;2023-04-24T01:15:17;8.25;;;6.10;;
37545;SDS011;23389;52.484;13.572;2023-04-24T01:17:43;8.55;;;6.22;;
37545;SDS011;23389;52.484;13.572;2023-04-24T01:20:08;8.50;;;5.10;;
37545;SDS011;23389;52.484;13.572;2023-04-24T01:22:34;7.20;;;4.95;;
37545;SDS011;23389;52.484;13.572;2023-04-24T01:24:59;7.85;;;4.97;;
37545;SDS011;23389;52.484;13.572;2023-04-24T01:27:24;10.20;;;5.85;;
37545;SDS011;23389;52.484;13.572;2023-04-24T01:29:49;7.38;;;5.38;;
37545;SDS011;23389;52.484;13.572;2023-04-24T01:32:16;7.95;;;5.50;;
37545;SDS011;23389;52.484;13.572;2023-04-24T01:34:41;7.18;;;5.22;;
37545;SDS011;23389;52.484;13.572;2023-04-24T01:37:07;8.23;;;5.40;;
37545;SDS011;23389;52.484;13.572;2023-04-24T01:39:32;7.72;;;5.20;;
37545;SDS011;23389;52.484;13.572;2023-04-24T01:41:58;6.85;;;5.28;;
37545;SDS011;23389;52.484;13.572;2023-04-24T01:44:23;9.02;;;5.30;;
37545;SDS011;23389;52.484;13.572;2023-04-24T01:46:48;8.33;;;5.70;;
37545;SDS011;23389;52.484;13.572;2023-04-24T01:49:14;7.85;;;5.22;;
37545;SDS011;23389;52.484;13.572;2023-04-24T01:51:39;7.90;;;5.87;;
37545;SDS011;23389;52.484;13.572;2023-04-24T01:54:04;7.25;;;5.25;;
37545;SDS011;23389;52.484;13.572;2023-04-24T01:56:30;7.88;;;5.10;;
37545;SDS011;23389;52.484;13.572;2023-04-24T01:58:56;8.50;;;6.10;;
37545;SDS011;23389;52.484;13.572;2023-04-24T02:01:23;6.80;;;5.22;;
37545;SDS011;23389;52.484;13.572;2023-04-24T02:03:48;9.57;;;6.07;;
37545;SDS011;23389;52.484;13.572;2023-04-24T02:06:13;9.05;;;5.47;;
37545;SDS011;23389;52.484;13.572;2023-04-24T02:08:38;7.45;;;5.70;;
37545;SDS011;23389;52.484;13.572;2023-04-24T02:11:04;7.20;;;5.50;;
37545;SDS011;23389;52.484;13.572;2023-04-24T02:13:29;8.43;;;5.80;;
37545;SDS011;23389;52.484;13.572;2023-04-24T02:15:54;8.10;;;5.38;;
37545;SDS011;23389;52.484;13.572;2023-04-24T02:18:19;8.13;;;5.27;;
37545;SDS011;23389;52.484;13.572;2023-04-24T02:20:45;7.15;;;5.47;;
37545;SDS011;23389;52.484;13.572;2023-04-24T02:23:10;7.00;;;5.60;;
37545;SDS011;23389;52.484;13.572;2023-04-24T02:25:35;7.68;;;5.55;;
37545;SDS011;23389;52.484;13.572;2023-04-24T02:28:00;7.25;;;5.60;;
37545;SDS011;23389;52.484;13.572;2023-04-24T02:30:26;8.13;;;5.40;;
37545;SDS011;23389;52.484;13.572;2023-04-24T02:32:51;7.43;;;5.30;;
37545;SDS011;23389;52.484;13.572;2023-04-24T02:35:16;7.47;;;5.90;;
37545;SDS011;23389;52.484;13.572;2023-04-24T02:37:41;8.18;;;5.97;;
37545;SDS011;23389;52.484;13.572;2023-04-24T02:40:07;7.85;;;5.63;;
37545;SDS011;23389;52.484;13.572;2023-04-24T02:42:32;7.93;;;5.95;;
37545;SDS011;23389;52.484;13.572;2023-04-24T02:44:57;8.00;;;5.70;;
37545;SDS011;23389;52.484;13.572;2023-04-24T02:47:23;8.45;;;5.63;;
37545;SDS011;23389;52.484;13.572;2023-04-24T02:49:48;8.07;;;5.68;;
37545;SDS011;23389;52.484;13.572;2023-04-24T02:52:13;8.20;;;5.97;;
37545;SDS011;23389;52.484;13.572;2023-04-24T02:54:39;8.10;;;5.93;;
37545;SDS011;23389;52.484;13.572;2023-04-24T02:57:04;8.55;;;5.70;;
37545;SDS011;23389;52.484;13.572;2023-04-24T02:59:29;8.57;;;5.38;;
37545;SDS011;23389;52.484;13.572;2023-04-24T03:01:54;8.18;;;6.25;;
37545;SDS011;23389;52.484;13.572;2023-04-24T03:04:20;7.90;;;5.88;;
37545;SDS011;23389;52.484;13.572;2023-04-24T03:06:45;8.40;;;6.20;;
37545;SDS011;23389;52.484;13.572;2023-04-24T03:09:10;9.35;;;6.68;;
37545;SDS011;23389;52.484;13.572;2023-04-24T03:11:35;8.70;;;6.80;;
37545;SDS011;23389;52.484;13.572;2023-04-24T03:14:01;8.80;;;6.80;;
37545;SDS011;23389;52.484;13.572;2023-04-24T03:16:26;9.05;;;6.43;;
37545;SDS011;23389;52.484;13.572;2023-04-24T03:18:51;9.27;;;6.53;;
37545;SDS011;23389;52.484;13.572;2023-04-24T03:21:16;8.70;;;6.35;;
37545;SDS011;23389;52.484;13.572;2023-04-24T03:23:41;8.50;;;7.13;;
37545;SDS011;23389;52.484;13.572;2023-04-24T03:26:06;8.27;;;5.90;;
37545;SDS011;23389;52.484;13.572;2023-04-24T03:28:31;8.43;;;6.13;;
37545;SDS011;23389;52.484;13.572;2023-04-24T03:30:56;7.93;;;6.13;;
37545;SDS011;23389;52.484;13.572;2023-04-24T03:33:21;8.73;;;6.20;;
37545;SDS011;23389;52.484;13.572;2023-04-24T03:35:46;7.90;;;5.85;;
37545;SDS011;23389;52.484;13.572;2023-04-24T03:38:12;8.32;;;5.88;;
37545;SDS011;23389;52.484;13.572;2023-04-24T03:40:37;8.23;;;6.18;;
37545;SDS011;23389;52.484;13.572;2023-04-24T03:43:02;8.70;;;6.27;;
37545;SDS011;23389;52.484;13.572;2023-04-24T03:45:27;8.77;;;6.70;;
37545;SDS011;23389;52.484;13.572;2023-04-24T03:47:52;8.73;;;6.87;;
37545;SDS011;23389;52.484;13.572;2023-04-24T03:50:17;7.75;;;6.20;;
37545;SDS011;23389;52.484;13.572;2023-04-24T03:52:42;9.80;;;6.50;;
37545;SDS011;23389;52.484;13.572;2023-04-24T03:55:08;9.65;;;6.35;;
37545;SDS011;23389;52.484;13.572;2023-04-24T03:57:33;8.45;;;6.43;;
37545;SDS011;23389;52.484;13.572;2023-04-24T03:59:58;8.27;;;6.70;;
37545;SDS011;23389;52.484;13.572;2023-04-24T04:02:23;8.60;;;6.47;;
37545;SDS011;23389;52.484;13.572;2023-04-24T04:04:48;8.93;;;6.30;;
37545;SDS011;23389;52.484;13.572;2023-04-24T04:07:13;8.23;;;6.60;;
37545;SDS011;23389;52.484;13.572;2023-04-24T04:09:38;9.43;;;6.63;;
37545;SDS011;23389;52.484;13.572;2023-04-24T04:12:04;8.50;;;6.60;;
37545;SDS011;23389;52.484;13.572;2023-04-24T04:14:29;8.33;;;6.63;;
37545;SDS011;23389;52.484;13.572;2023-04-24T04:16:54;10.23;;;6.93;;
37545;SDS011;23389;52.484;13.572;2023-04-24T04:19:19;8.87;;;7.03;;
37545;SDS011;23389;52.484;13.572;2023-04-24T04:21:44;9.00;;;6.57;;
37545;SDS011;23389;52.484;13.572;2023-04-24T04:24:10;8.57;;;6.57;;
37545;SDS011;23389;52.484;13.572;2023-04-24T04:26:36;8.35;;;6.07;;
37545;SDS011;23389;52.484;13.572;2023-04-24T04:29:02;9.68;;;6.63;;
37545;SDS011;23389;52.484;13.572;2023-04-24T04:31:28;9.13;;;6.50;;
37545;SDS011;23389;52.484;13.572;2023-04-24T04:33:54;7.15;;;5.90;;
37545;SDS011;23389;52.484;13.572;2023-04-24T04:36:19;8.30;;;6.67;;
37545;SDS011;23389;52.484;13.572;2023-04-24T04:38:44;8.85;;;6.47;;
37545;SDS011;23389;52.484;13.572;2023-04-24T04:41:09;9.18;;;5.95;;
37545;SDS011;23389;52.484;13.572;2023-04-24T04:43:35;7.82;;;5.90;;
37545;SDS011;23389;52.484;13.572;2023-04-24T04:46:01;9.57;;;6.13;;
37545;SDS011;23389;52.484;13.572;2023-04-24T04:48:28;9.55;;;6.05;;
37545;SDS011;23389;52.484;13.572;2023-04-24T04:50:53;8.25;;;5.75;;
37545;SDS011;23389;52.484;13.572;2023-04-24T04:53:18;9.07;;;6.15;;
37545;SDS011;23389;52.484;13.572;2023-04-24T04:55:43;8.90;;;5.90;;
37545;SDS011;23389;52.484;13.572;2023-04-24T04:58:09;8.13;;;6.03;;
37545;SDS011;23389;52.484;13.572;2023-04-24T05:00:34;10.75;;;6.90;;
37545;SDS011;23389;52.484;13.572;2023-04-24T05:03:02;7.88;;;6.10;;
37545;SDS011;23389;52.484;13.572;2023-04-24T05:05:27;10.63;;;7.43;;
37545;SDS011;23389;52.484;13.572;2023-04-24T05:07:52;9.05;;;6.03;;
37545;SDS011;23389;52.484;13.572;2023-04-24T05:10:17;8.60;;;6.00;;
37545;SDS011;23389;52.484;13.572;2023-04-24T05:12:43;8.30;;;6.03;;
37545;SDS011;23389;52.484;13.572;2023-04-24T05:15:08;8.60;;;5.68;;
37545;SDS011;23389;52.484;13.572;2023-04-24T05:17:33;9.15;;;6.03;;
37545;SDS011;23389;52.484;13.572;2023-04-24T05:19:58;8.43;;;5.65;;
37545;SDS011;23389;52.484;13.572;2023-04-24T05:22:23;9.98;;;6.00;;
37545;SDS011;23389;52.484;13.572;2023-04-24T05:24:48;11.80;;;5.73;;
37545;SDS011;23389;52.484;13.572;2023-04-24T05:27:14;8.57;;;5.57;;
37545;SDS011;23389;52.484;13.572;2023-04-24T05:29:40;7.75;;;4.85;;
37545;SDS011;23389;52.484;13.572;2023-04-24T05:32:05;7.10;;;5.03;;
37545;SDS011;23389;52.484;13.572;2023-04-24T05:34:30;10.80;;;4.38;;
37545;SDS011;23389;52.484;13.572;2023-04-24T05:36:55;8.93;;;4.30;;
37545;SDS011;23389;52.484;13.572;2023-04-24T05:39:20;7.97;;;3.83;;
37545;SDS011;23389;52.484;13.572;2023-04-24T05:41:46;5.23;;;3.40;;
37545;SDS011;23389;52.484;13.572;2023-04-24T05:44:11;6.75;;;3.67;;
37545;SDS011;23389;52.484;13.572;2023-04-24T05:46:36;5.20;;;3.50;;
37545;SDS011;23389;52.484;13.572;2023-04-24T05:49:01;5.82;;;3.20;;
37545;SDS011;23389;52.484;13.572;2023-04-24T05:51:27;6.25;;;3.50;;
37545;SDS011;23389;52.484;13.572;2023-04-24T05:53:52;8.27;;;3.37;;
37545;SDS011;23389;52.484;13.572;2023-04-24T05:56:17;6.63;;;3.15;;
37545;SDS011;23389;52.484;13.572;2023-04-24T05:58:43;5.75;;;3.00;;
37545;SDS011;23389;52.484;13.572;2023-04-24T06:01:08;6.37;;;3.23;;
37545;SDS011;23389;52.484;13.572;2023-04-24T06:03:34;5.97;;;3.22;;
37545;SDS011;23389;52.484;13.572;2023-04-24T06:05:59;5.82;;;3.30;;
37545;SDS011;23389;52.484;13.572;2023-04-24T06:08:24;6.87;;;3.30;;
37545;SDS011;23389;52.484;13.572;2023-04-24T06:10:50;5.22;;;2.80;;
37545;SDS011;23389;52.484;13.572;2023-04-24T06:13:15;5.47;;;2.70;;
37545;SDS011;23389;52.484;13.572;2023-04-24T06:15:40;5.72;;;2.53;;
37545;SDS011;23389;52.484;13.572;2023-04-24T06:18:06;6.97;;;2.75;;
37545;SDS011;23389;52.484;13.572;2023-04-24T06:20:31;6.03;;;3.17;;
37545;SDS011;23389;52.484;13.572;2023-04-24T06:22:56;5.28;;;2.65;;
37545;SDS011;23389;52.484;13.572;2023-04-24T06:25:21;4.20;;;2.30;;
37545;SDS011;23389;52.484;13.572;2023-04-24T06:27:46;4.70;;;2.00;;
37545;SDS011;23389;52.484;13.572;2023-04-24T06:30:12;4.93;;;1.95;;
37545;SDS011;23389;52.484;13.572;2023-04-24T06:32:37;4.20;;;1.90;;
37545;SDS011;23389;52.484;13.572;2023-04-24T06:35:02;5.75;;;2.20;;
37545;SDS011;23389;52.484;13.572;2023-04-24T06:37:27;4.57;;;2.23;;
37545;SDS011;23389;52.484;13.572;2023-04-24T06:39:52;4.15;;;1.90;;
37545;SDS011;23389;52.484;13.572;2023-04-24T06:42:17;5.25;;;2.08;;
37545;SDS011;23389;52.484;13.572;2023-04-24T06:44:43;3.60;;;1.80;;
37545;SDS011;23389;52.484;13.572;2023-04-24T06:47:08;4.20;;;2.00;;
37545;SDS011;23389;52.484;13.572;2023-04-24T06:49:37;3.40;;;1.67;;
37545;SDS011;23389;52.484;13.572;2023-04-24T06:52:02;3.67;;;1.63;;
37545;SDS011;23389;52.484;13.572;2023-04-24T06:54:28;4.90;;;1.80;;
37545;SDS011;23389;52.484;13.572;2023-04-24T06:56:53;4.93;;;1.88;;
37545;SDS011;23389;52.484;13.572;2023-04-24T06:59:18;4.53;;;1.65;;
37545;SDS011;23389;52.484;13.572;2023-04-24T07:01:43;3.53;;;1.47;;
37545;SDS011;23389;52.484;13.572;2023-04-24T07:04:08;2.95;;;1.38;;
37545;SDS011;23389;52.484;13.572;2023-04-24T07:06:34;3.37;;;1.50;;
37545;SDS011;23389;52.484;13.572;2023-04-24T07:09:00;4.55;;;1.30;;
37545;SDS011;23389;52.484;13.572;2023-04-24T07:11:26;3.95;;;1.30;;
37545;SDS011;23389;52.484;13.572;2023-04-24T07:13:54;3.10;;;1.27;;
37545;SDS011;23389;52.484;13.572;2023-04-24T07:16:19;4.93;;;1.20;;
37545;SDS011;23389;52.484;13.572;2023-04-24T07:18:44;3.60;;;1.00;;
37545;SDS011;23389;52.484;13.572;2023-04-24T07:21:09;2.70;;;1.08;;
37545;SDS011;23389;52.484;13.572;2023-04-24T07:23:35;6.07;;;1.48;;
37545;SDS011;23389;52.484;13.572;2023-04-24T07:26:00;4.47;;;1.40;;
37545;SDS011;23389;52.484;13.572;2023-04-24T07:28:26;3.92;;;1.10;;
37545;SDS011;23389;52.484;13.572;2023-04-24T07:30:51;4.55;;;1.00;;
37545;SDS011;23389;52.484;13.572;2023-04-24T07:33:18;1.52;;;0.93;;
37545;SDS011;23389;52.484;13.572;2023-04-24T07:35:43;3.95;;;1.10;;
37545;SDS011;23389;52.484;13.572;2023-04-24T07:38:09;1.77;;;0.80;;
37545;SDS011;23389;52.484;13.572;2023-04-24T07:40:34;2.75;;;0.98;;
37545;SDS011;23389;52.484;13.572;2023-04-24T07:42:59;4.87;;;1.20;;
37545;SDS011;23389;52.484;13.572;2023-04-24T07:45:24;3.80;;;1.05;;
37545;SDS011;23389;52.484;13.572;2023-04-24T07:47:51;3.85;;;1.20;;
37545;SDS011;23389;52.484;13.572;2023-04-24T07:50:16;1.60;;;0.80;;
37545;SDS011;23389;52.484;13.572;2023-04-24T07:52:41;2.67;;;0.70;;
37545;SDS011;23389;52.484;13.572;2023-04-24T07:55:06;2.50;;;1.00;;
37545;SDS011;23389;52.484;13.572;2023-04-24T07:57:32;1.92;;;0.80;;
37545;SDS011;23389;52.484;13.572;2023-04-24T07:59:57;2.23;;;0.67;;
37545;SDS011;23389;52.484;13.572;2023-04-24T08:02:22;3.37;;;1.10;;
37545;SDS011;23389;52.484;13.572;2023-04-24T08:04:51;2.05;;;1.00;;
37545;SDS011;23389;52.484;13.572;2023-04-24T08:07:16;3.20;;;0.82;;
37545;SDS011;23389;52.484;13.572;2023-04-24T08:09:41;3.03;;;0.97;;
37545;SDS011;23389;52.484;13.572;2023-04-24T08:12:06;1.83;;;0.70;;
37545;SDS011;23389;52.484;13.572;2023-04-24T08:14:32;3.60;;;0.90;;
37545;SDS011;23389;52.484;13.572;2023-04-24T08:16:57;3.85;;;1.17;;
37545;SDS011;23389;52.484;13.572;2023-04-24T08:19:24;2.95;;;1.00;;
37545;SDS011;23389;52.484;13.572;2023-04-24T08:21:50;1.85;;;0.75;;
37545;SDS011;23389;52.484;13.572;2023-04-24T08:24:15;3.45;;;1.00;;
37545;SDS011;23389;52.484;13.572;2023-04-24T08:26:40;2.63;;;1.07;;
37545;SDS011;23389;52.484;13.572;2023-04-24T08:29:06;1.83;;;0.60;;
37545;SDS011;23389;52.484;13.572;2023-04-24T08:31:31;2.30;;;1.00;;
37545;SDS011;23389;52.484;13.572;2023-04-24T08:33:56;2.80;;;1.05;;
37545;SDS011;23389;52.484;13.572;2023-04-24T08:36:22;2.78;;;1.02;;
37545;SDS011;23389;52.484;13.572;2023-04-24T08:38:47;3.28;;;1.10;;
37545;SDS011;23389;52.484;13.572;2023-04-24T08:41:13;3.13;;;0.77;;
37545;SDS011;23389;52.484;13.572;2023-04-24T08:43:39;2.05;;;0.80;;
37545;SDS011;23389;52.484;13.572;2023-04-24T08:46:04;3.22;;;0.93;;
37545;SDS011;23389;52.484;13.572;2023-04-24T08:48:30;2.47;;;0.77;;
37545;SDS011;23389;52.484;13.572;2023-04-24T08:50:56;2.88;;;0.90;;
37545;SDS011;23389;52.484;13.572;2023-04-24T08:53:22;3.88;;;0.90;;
37545;SDS011;23389;52.484;13.572;2023-04-24T08:55:48;3.17;;;0.85;;
37545;SDS011;23389;52.484;13.572;2023-04-24T08:58:13;5.77;;;0.80;;
37545;SDS011;23389;52.484;13.572;2023-04-24T09:00:39;1.45;;;0.60;;
37545;SDS011;23389;52.484;13.572;2023-04-24T09:03:04;1.42;;;0.55;;
37545;SDS011;23389;52.484;13.572;2023-04-24T09:05:30;1.90;;;0.50;;
37545;SDS011;23389;52.484;13.572;2023-04-24T09:07:56;2.25;;;0.70;;
37545;SDS011;23389;52.484;13.572;2023-04-24T09:10:21;3.92;;;0.70;;
37545;SDS011;23389;52.484;13.572;2023-04-24T09:12:47;1.65;;;0.40;;
37545;SDS011;23389;52.484;13.572;2023-04-24T09:15:12;1.50;;;0.50;;
37545;SDS011;23389;52.484;13.572;2023-04-24T09:17:37;3.10;;;0.73;;
37545;SDS011;23389;52.484;13.572;2023-04-24T09:20:03;1.35;;;0.63;;
37545;SDS011;23389;52.484;13.572;2023-04-24T09:22:31;2.33;;;0.70;;
37545;SDS011;23389;52.484;13.572;2023-04-24T09:24:59;2.47;;;0.70;;
37545;SDS011;23389;52.484;13.572;2023-04-24T09:27:24;1.20;;;0.40;;
37545;SDS011;23389;52.484;13.572;2023-04-24T09:29:53;2.40;;;0.73;;
37545;SDS011;23389;52.484;13.572;2023-04-24T09:32:19;1.85;;;0.68;;
37545;SDS011;23389;52.484;13.572;2023-04-24T09:34:46;1.55;;;0.45;;
37545;SDS011;23389;52.484;13.572;2023-04-24T09:37:12;0.57;;;0.40;;
37545;SDS011;23389;52.484;13.572;2023-04-24T09:39:43;2.70;;;0.70;;
37545;SDS011;23389;52.484;13.572;2023-04-24T09:42:08;1.05;;;0.45;;
37545;SDS011;23389;52.484;13.572;2023-04-24T09:44:34;2.25;;;0.73;;
37545;SDS011;23389;52.484;13.572;2023-04-24T09:46:59;2.53;;;0.70;;
37545;SDS011;23389;52.484;13.572;2023-04-24T09:49:25;2.58;;;0.60;;
37545;SDS011;23389;52.484;13.572;2023-04-24T09:51:51;1.75;;;0.65;;
37545;SDS011;23389;52.484;13.572;2023-04-24T09:54:17;2.92;;;1.00;;
37545;SDS011;23389;52.484;13.572;2023-04-24T09:56:44;2.72;;;1.00;;
37545;SDS011;23389;52.484;13.572;2023-04-24T09:59:10;2.45;;;1.02;;
37545;SDS011;23389;52.484;13.572;2023-04-24T10:01:35;2.97;;;1.00;;
37545;SDS011;23389;52.484;13.572;2023-04-24T10:04:00;3.43;;;0.90;;
37545;SDS011;23389;52.484;13.572;2023-04-24T10:06:35;1.95;;;0.75;;
37545;SDS011;23389;52.484;13.572;2023-04-24T10:09:00;2.88;;;0.90;;
37545;SDS011;23389;52.484;13.572;2023-04-24T10:11:29;1.73;;;0.68;;
37545;SDS011;23389;52.484;13.572;2023-04-24T10:16:21;1.38;;;0.68;;
37545;SDS011;23389;52.484;13.572;2023-04-24T10:18:47;0.98;;;0.47;;
37545;SDS011;23389;52.484;13.572;2023-04-24T10:21:13;1.77;;;0.52;;
37545;SDS011;23389;52.484;13.572;2023-04-24T10:23:39;2.50;;;0.80;;
37545;SDS011;23389;52.484;13.572;2023-04-24T10:26:04;2.50;;;1.10;;
37545;SDS011;23389;52.484;13.572;2023-04-24T10:28:30;2.80;;;0.60;;
37545;SDS011;23389;52.484;13.572;2023-04-24T10:30:56;2.08;;;0.70;;
37545;SDS011;23389;52.484;13.572;2023-04-24T10:33:22;3.75;;;1.02;;
37545;SDS011;23389;52.484;13.572;2023-04-24T10:35:48;3.67;;;0.80;;
37545;SDS011;23389;52.484;13.572;2023-04-24T10:38:16;2.20;;;0.70;;
37545;SDS011;23389;52.484;13.572;2023-04-24T10:40:42;3.17;;;0.60;;
37545;SDS011;23389;52.484;13.572;2023-04-24T10:43:08;2.60;;;0.88;;
37545;SDS011;23389;52.484;13.572;2023-04-24T10:45:36;3.20;;;0.70;;
37545;SDS011;23389;52.484;13.572;2023-04-24T10:48:01;2.07;;;0.73;;
37545;SDS011;23389;52.484;13.572;2023-04-24T10:50:28;2.17;;;0.70;;
37545;SDS011;23389;52.484;13.572;2023-04-24T10:52:55;1.80;;;0.70;;
37545;SDS011;23389;52.484;13.572;2023-04-24T10:58:07;2.38;;;0.70;;
37545;SDS011;23389;52.484;13.572;2023-04-24T11:00:32;2.93;;;1.10;;
37545;SDS011;23389;52.484;13.572;2023-04-24T11:02:57;1.42;;;0.70;;
37545;SDS011;23389;52.484;13.572;2023-04-24T11:05:22;2.88;;;0.90;;
37545;SDS011;23389;52.484;13.572;2023-04-24T11:08:11;2.38;;;0.80;;
37545;SDS011;23389;52.484;13.572;2023-04-24T11:10:46;1.70;;;0.50;;
37545;SDS011;23389;52.484;13.572;2023-04-24T11:13:15;3.35;;;0.80;;
37545;SDS011;23389;52.484;13.572;2023-04-24T11:18:05;1.98;;;0.73;;
37545;SDS011;23389;52.484;13.572;2023-04-24T11:20:31;1.77;;;0.60;;
37545;SDS011;23389;52.484;13.572;2023-04-24T11:22:57;2.40;;;0.90;;
37545;SDS011;23389;52.484;13.572;2023-04-24T11:25:30;3.92;;;0.90;;
37545;SDS011;23389;52.484;13.572;2023-04-24T11:28:05;1.42;;;0.60;;
37545;SDS011;23389;52.484;13.572;2023-04-24T11:30:31;1.95;;;0.65;;
37545;SDS011;23389;52.484;13.572;2023-04-24T11:32:56;4.28;;;0.60;;
37545;SDS011;23389;52.484;13.572;2023-04-24T11:35:26;1.17;;;0.50;;
37545;SDS011;23389;52.484;13.572;2023-04-24T11:37:53;3.60;;;0.70;;
37545;SDS011;23389;52.484;13.572;2023-04-24T11:40:20;3.33;;;0.90;;
37545;SDS011;23389;52.484;13.572;2023-04-24T11:42:47;1.65;;;0.60;;
37545;SDS011;23389;52.484;13.572;2023-04-24T11:45:14;1.50;;;0.90;;
37545;SDS011;23389;52.484;13.572;2023-04-24T11:47:39;2.30;;;0.90;;
37545;SDS011;23389;52.484;13.572;2023-04-24T11:50:05;7.27;;;1.53;;
37545;SDS011;23389;52.484;13.572;2023-04-24T11:52:31;3.92;;;1.08;;
37545;SDS011;23389;52.484;13.572;2023-04-24T11:54:56;1.45;;;0.90;;
37545;SDS011;23389;52.484;13.572;2023-04-24T11:57:22;3.47;;;1.05;;
37545;SDS011;23389;52.484;13.572;2023-04-24T11:59:51;2.80;;;0.85;;
37545;SDS011;23389;52.484;13.572;2023-04-24T12:02:23;3.30;;;0.90;;
37545;SDS011;23389;52.484;13.572;2023-04-24T12:04:48;2.40;;;0.73;;
37545;SDS011;23389;52.484;13.572;2023-04-24T12:07:13;1.73;;;0.85;;
37545;SDS011;23389;52.484;13.572;2023-04-24T12:09:42;3.63;;;0.80;;
37545;SDS011;23389;52.484;13.572;2023-04-24T12:14:32;3.08;;;1.00;;
37545;SDS011;23389;52.484;13.572;2023-04-24T12:16:58;3.97;;;1.02;;
37545;SDS011;23389;52.484;13.572;2023-04-24T12:19:23;3.60;;;0.90;;
37545;SDS011;23389;52.484;13.572;2023-04-24T12:22:06;2.17;;;1.00;;
37545;SDS011;23389;52.484;13.572;2023-04-24T12:24:32;4.18;;;1.25;;
37545;SDS011;23389;52.484;13.572;2023-04-24T12:26:57;2.23;;;0.90;;
37545;SDS011;23389;52.484;13.572;2023-04-24T12:29:23;1.98;;;1.00;;
37545;SDS011;23389;52.484;13.572;2023-04-24T12:31:48;2.70;;;1.00;;
37545;SDS011;23389;52.484;13.572;2023-04-24T12:34:20;2.20;;;0.80;;
37545;SDS011;23389;52.484;13.572;2023-04-24T12:36:45;2.22;;;1.00;;
37545;SDS011;23389;52.484;13.572;2023-04-24T12:39:17;1.50;;;0.77;;
37545;SDS011;23389;52.484;13.572;2023-04-24T12:41:55;2.65;;;0.60;;
37545;SDS011;23389;52.484;13.572;2023-04-24T12:44:31;2.55;;;0.77;;
37545;SDS011;23389;52.484;13.572;2023-04-24T12:46:56;2.85;;;0.82;;
37545;SDS011;23389;52.484;13.572;2023-04-24T12:49:22;2.22;;;0.95;;
37545;SDS011;23389;52.484;13.572;2023-04-24T12:51:47;1.85;;;0.63;;
37545;SDS011;23389;52.484;13.572;2023-04-24T12:54:12;1.77;;;0.70;;
37545;SDS011;23389;52.484;13.572;2023-04-24T12:56:37;2.28;;;0.60;;
37545;SDS011;23389;52.484;13.572;2023-04-24T12:59:04;2.78;;;0.77;;
37545;SDS011;23389;52.484;13.572;2023-04-24T13:01:29;2.30;;;0.60;;
37545;SDS011;23389;52.484;13.572;2023-04-24T13:03:54;1.63;;;0.70;;
37545;SDS011;23389;52.484;13.572;2023-04-24T13:06:19;2.03;;;0.60;;
37545;SDS011;23389;52.484;13.572;2023-04-24T13:08:45;2.65;;;0.80;;
37545;SDS011;23389;52.484;13.572;2023-04-24T13:11:12;2.22;;;0.70;;
37545;SDS011;23389;52.484;13.572;2023-04-24T13:13:37;4.88;;;0.70;;
37545;SDS011;23389;52.484;13.572;2023-04-24T13:16:02;0.95;;;0.50;;
37545;SDS011;23389;52.484;13.572;2023-04-24T13:18:27;0.90;;;0.50;;
37545;SDS011;23389;52.484;13.572;2023-04-24T13:20:52;1.70;;;0.50;;
37545;SDS011;23389;52.484;13.572;2023-04-24T13:23:17;3.20;;;0.75;;
37545;SDS011;23389;52.484;13.572;2023-04-24T13:25:42;1.57;;;0.60;;
37545;SDS011;23389;52.484;13.572;2023-04-24T13:28:07;2.25;;;0.90;;
37545;SDS011;23389;52.484;13.572;2023-04-24T13:30:33;2.58;;;0.85;;
37545;SDS011;23389;52.484;13.572;2023-04-24T13:32:58;5.47;;;1.30;;
37545;SDS011;23389;52.484;13.572;2023-04-24T13:35:23;1.92;;;0.70;;
37545;SDS011;23389;52.484;13.572;2023-04-24T13:37:48;3.72;;;0.90;;
37545;SDS011;23389;52.484;13.572;2023-04-24T13:40:13;1.48;;;0.60;;
37545;SDS011;23389;52.484;13.572;2023-04-24T13:42:38;0.98;;;0.40;;
37545;SDS011;23389;52.484;13.572;2023-04-24T13:45:03;1.87;;;0.70;;
37545;SDS011;23389;52.484;13.572;2023-04-24T13:47:29;1.98;;;0.65;;
37545;SDS011;23389;52.484;13.572;2023-04-24T13:49:54;2.37;;;0.70;;
37545;SDS011;23389;52.484;13.572;2023-04-24T13:52:19;1.60;;;0.70;;
37545;SDS011;23389;52.484;13.572;2023-04-24T13:54:45;2.78;;;0.65;;
37545;SDS011;23389;52.484;13.572;2023-04-24T13:57:10;1.17;;;0.70;;
37545;SDS011;23389;52.484;13.572;2023-04-24T13:59:35;2.17;;;0.60;;
37545;SDS011;23389;52.484;13.572;2023-04-24T14:02:00;1.50;;;0.50;;
37545;SDS011;23389;52.484;13.572;2023-04-24T14:04:25;2.57;;;0.80;;
37545;SDS011;23389;52.484;13.572;2023-04-24T14:06:50;2.03;;;0.67;;
37545;SDS011;23389;52.484;13.572;2023-04-24T14:09:16;2.45;;;0.65;;
37545;SDS011;23389;52.484;13.572;2023-04-24T14:11:41;2.03;;;0.68;;
37545;SDS011;23389;52.484;13.572;2023-04-24T14:14:06;1.67;;;0.50;;
37545;SDS011;23389;52.484;13.572;2023-04-24T14:16:31;2.60;;;0.80;;
37545;SDS011;23389;52.484;13.572;2023-04-24T14:18:56;1.73;;;0.82;;
37545;SDS011;23389;52.484;13.572;2023-04-24T14:21:21;0.80;;;0.50;;
37545;SDS011;23389;52.484;13.572;2023-04-24T14:23:46;2.08;;;0.90;;
37545;SDS011;23389;52.484;13.572;2023-04-24T14:26:12;2.38;;;0.70;;
37545;SDS011;23389;52.484;13.572;2023-04-24T14:28:37;2.45;;;0.75;;
37545;SDS011;23389;52.484;13.572;2023-04-24T14:31:02;2.03;;;0.60;;
37545;SDS011;23389;52.484;13.572;2023-04-24T14:33:27;2.42;;;0.60;;